METAR Data
IDs: Format: Raw Decoded Include TAF

Data at: 1930 UTC 26 Sep 2021

LOWW 261920Z 15003KT CAVOK 17/14 Q1018 NOSIG